Time;durP1;ratioP1;P1;durP2;ratioP2;P2;SDS_P1;SDS_P2;PMS_P1;PMS_P2;Temp;Humidity;BMP_temperature;BMP_pressure;BME280_temperature;BME280_humidity;BME280_pressure;Samples;Min_cycle;Max_cycle;Signal;HPM_P1;HPM_P2
2020/12/15 00:00:10;;;;;;;0.20;0.20;;;;;;;-0.18;100.00;101245.44;1801582;78;21202;-52
2020/12/15 00:02:38;;;;;;;1.75;1.65;;;;;;;-0.18;100.00;101241.41;1800757;79;21199;-52
2020/12/15 00:05:05;;;;;;;0.40;0.40;;;;;;;-0.17;100.00;101240.89;1801563;78;21549;-52
2020/12/15 00:07:33;;;;;;;0.70;0.70;;;;;;;-0.16;100.00;101241.23;1800690;79;21150;-52
2020/12/15 00:10:01;;;;;;;1.72;1.55;;;;;;;-0.17;100.00;101236.87;1822592;78;22121;-52
2020/12/15 00:12:29;;;;;;;0.47;0.47;;;;;;;-0.18;100.00;101234.70;1802981;77;21125;-52
2020/12/15 00:14:57;;;;;;;1.35;1.25;;;;;;;-0.16;100.00;101245.27;1789106;80;21656;-52
2020/12/15 00:17:25;;;;;;;3.05;2.45;;;;;;;-0.16;100.00;101248.77;1823519;77;21139;-53
2020/12/15 00:19:53;;;;;;;0.75;0.75;;;;;;;-0.16;100.00;101248.77;1823139;77;21071;-52
2020/12/15 00:22:20;;;;;;;1.20;0.53;;;;;;;-0.18;100.00;101249.47;1823788;77;21576;-52
2020/12/15 00:24:48;;;;;;;0.50;0.47;;;;;;;-0.18;100.00;101240.06;1823467;78;21130;-53
2020/12/15 00:27:16;;;;;;;3.25;0.57;;;;;;;-0.17;100.00;101250.30;1823562;77;21134;-52
2020/12/15 00:29:43;;;;;;;0.30;0.30;;;;;;;-0.19;100.00;101244.31;1825035;77;21123;-53
2020/12/15 00:32:11;;;;;;;2.02;1.22;;;;;;;-0.19;100.00;101247.82;1823334;78;21387;-52
2020/12/15 00:34:39;;;;;;;0.62;0.50;;;;;;;-0.17;100.00;101247.13;1850613;77;21115;-52
2020/12/15 00:37:08;;;;;;;3.98;2.00;;;;;;;-0.16;100.00;101248.77;1856736;77;21628;-52
2020/12/15 00:39:36;;;;;;;1.32;1.22;;;;;;;-0.17;100.00;101240.41;1796572;78;21206;-52
2020/12/15 00:42:05;;;;;;;1.37;1.20;;;;;;;-0.17;100.00;101244.92;1810639;79;21124;-52
2020/12/15 00:44:33;;;;;;;0.10;0.10;;;;;;;-0.16;100.00;101243.92;1823865;77;21146;-52
2020/12/15 00:47:03;;;;;;;0.37;0.37;;;;;;;-0.15;100.00;101235.66;1823526;78;21386;-52
2020/12/15 00:49:31;;;;;;;5.58;2.08;;;;;;;-0.16;100.00;101235.86;1808481;77;21185;-52
2020/12/15 00:51:59;;;;;;;3.55;1.12;;;;;;;-0.15;100.00;101233.48;1768921;79;21123;-52
2020/12/15 00:54:27;;;;;;;1.45;0.35;;;;;;;-0.15;100.00;101232.97;1804715;78;21171;-53
2020/12/15 00:56:56;;;;;;;0.28;0.28;;;;;;;-0.13;100.00;101226.89;1762341;80;21111;-52
2020/12/15 00:59:23;;;;;;;1.70;1.60;;;;;;;-0.12;100.00;101217.01;1789714;78;21122;-52
2020/12/15 01:01:52;;;;;;;0.75;0.75;;;;;;;-0.12;100.00;101222.38;1836722;77;21147;-52
2020/12/15 01:04:19;;;;;;;0.20;0.20;;;;;;;-0.14;100.00;101223.08;1807856;77;21496;-53
2020/12/15 01:06:50;;;;;;;1.02;0.72;;;;;;;-0.17;100.00;101218.92;1793778;78;21158;-52
2020/12/15 01:09:20;;;;;;;1.92;1.05;;;;;;;-0.16;100.00;101216.54;1820917;78;21130;-52
2020/12/15 01:11:47;;;;;;;2.75;0.47;;;;;;;-0.14;100.00;101213.67;1825936;77;21538;-54
2020/12/15 01:14:16;;;;;;;0.75;0.75;;;;;;;-0.14;100.00;101210.98;1793858;80;21513;-54
2020/12/15 01:16:45;;;;;;;0.15;0.15;;;;;;;-0.14;100.00;101216.36;1817168;78;21158;-54
2020/12/15 01:19:13;;;;;;;1.57;0.85;;;;;;;-0.13;100.00;101216.16;1824047;78;21118;-53
2020/12/15 01:21:41;;;;;;;0.88;0.47;;;;;;;-0.12;100.00;101219.70;1826611;78;21578;-54
2020/12/15 01:24:10;;;;;;;1.75;0.95;;;;;;;-0.14;100.00;101225.25;1793720;78;21405;-54
2020/12/15 01:26:56;;;;;;;2.22;1.32;;;;;;;-0.16;100.00;101220.57;1794044;80;21506;-54
2020/12/15 01:29:25;;;;;;;1.12;1.05;;;;;;;-0.18;100.00;101221.27;1770710;80;21169;-55
2020/12/15 01:31:52;;;;;;;0.82;0.82;;;;;;;-0.18;100.00;101213.20;1806814;78;21540;-54
2020/12/15 01:34:24;;;;;;;0.53;0.53;;;;;;;-0.17;100.00;101210.86;1824676;78;21118;-55
2020/12/15 01:36:54;;;;;;;0.25;0.25;;;;;;;-0.19;100.00;101212.90;1806778;78;21115;-55
2020/12/15 01:39:23;;;;;;;0.20;0.20;;;;;;;-0.18;100.00;101217.23;1800408;78;21151;-54
2020/12/15 01:41:53;;;;;;;0.42;0.42;;;;;;;-0.18;100.00;101214.55;1826227;77;21506;-54
2020/12/15 01:44:20;;;;;;;0.88;0.33;;;;;;;-0.16;100.00;101221.09;1816979;78;21127;-54
2020/12/15 01:46:51;;;;;;;1.98;0.70;;;;;;;-0.17;100.00;101220.26;1798055;78;21139;-56
2020/12/15 01:49:21;;;;;;;0.95;0.95;;;;;;;-0.17;100.00;101231.49;1810739;77;21127;-55
2020/12/15 01:51:53;;;;;;;;;;;;;;;-0.19;100.00;101223.64;1829028;78;21380;-54
2020/12/15 01:54:22;;;;;;;0.15;0.15;;;;;;;-0.19;100.00;101225.50;1812191;78;20266;-54
2020/12/15 01:56:51;;;;;;;0.20;0.20;;;;;;;-0.18;100.00;101229.33;1818632;78;21135;-54
2020/12/15 01:59:31;;;;;;;1.10;0.42;;;;;;;-0.14;100.00;101233.82;1887699;76;29089;-52
2020/12/15 02:01:59;;;;;;;0.37;0.37;;;;;;;-0.20;100.00;101231.36;1793306;77;21112;-53
2020/12/15 02:04:29;;;;;;;1.30;1.15;;;;;;;-0.20;100.00;101236.73;1817298;78;21163;-52
2020/12/15 02:06:58;;;;;;;0.65;0.65;;;;;;;-0.20;100.00;101231.36;1817347;77;21569;-52
2020/12/15 02:09:26;;;;;;;0.62;0.20;;;;;;;-0.20;100.00;101235.39;1818273;77;21144;-52
2020/12/15 02:12:08;;;;;;;0.33;0.33;;;;;;;-0.17;100.00;101228.32;1809954;77;28921;-52
2020/12/15 02:14:37;;;;;;;0.45;0.45;;;;;;;-0.22;100.00;101231.56;1820915;78;21138;-52
2020/12/15 02:17:05;;;;;;;0.72;0.35;;;;;;;-0.20;100.00;101231.36;1822136;78;21213;-52
2020/12/15 02:19:35;;;;;;;0.42;0.42;;;;;;;-0.19;100.00;101233.05;1782698;78;21111;-52
2020/12/15 02:22:02;;;;;;;0.75;0.75;;;;;;;-0.20;100.00;101227.33;1818905;78;21103;-53
2020/12/15 02:24:32;;;;;;;0.13;0.13;;;;;;;-0.22;100.00;101227.54;1818052;78;21083;-52
2020/12/15 02:27:01;;;;;;;0.60;0.60;;;;;;;-0.21;100.00;101224.34;1818417;78;21111;-52
2020/12/15 02:29:31;;;;;;;0.25;0.25;;;;;;;-0.19;100.00;101226.84;1796124;78;21698;-52
2020/12/15 02:31:59;;;;;;;1.00;0.65;;;;;;;-0.20;100.00;101217.93;1786923;78;21559;-52
2020/12/15 02:34:29;;;;;;;0.30;0.30;;;;;;;-0.20;100.00;101221.95;1786168;80;21159;-52
2020/12/15 02:36:57;;;;;;;1.00;0.95;;;;;;;-0.21;100.00;101228.37;1807124;78;21458;-52
2020/12/15 02:39:26;;;;;;;0.45;0.35;;;;;;;-0.18;100.00;101232.01;1787996;79;21153;-53
2020/12/15 02:42:07;;;;;;;0.33;0.33;;;;;;;-0.17;100.00;101236.38;1785439;80;21134;-53
2020/12/15 02:44:35;;;;;;;1.95;0.60;;;;;;;-0.18;100.00;101233.35;1786530;78;21550;-52
2020/12/15 02:47:05;;;;;;;0.20;0.20;;;;;;;-0.18;100.00;101234.70;1818220;78;21111;-52
2020/12/15 02:49:33;;;;;;;0.30;0.30;;;;;;;-0.16;100.00;101238.03;1811147;78;21093;-52
2020/12/15 02:52:01;;;;;;;8.08;0.47;;;;;;;-0.15;100.00;101238.34;1810861;79;21088;-52
2020/12/15 02:54:32;;;;;;;1.45;1.35;;;;;;;-0.16;100.00;101243.41;1789607;78;21174;-53
2020/12/15 02:57:00;;;;;;;0.42;0.42;;;;;;;-0.17;100.00;101244.44;1786492;80;21177;-52
2020/12/15 02:59:28;;;;;;;0.68;0.68;;;;;;;-0.17;100.00;101244.44;1788910;78;21118;-52
2020/12/15 03:01:56;;;;;;;0.13;0.13;;;;;;;-0.14;100.00;101252.62;1786371;80;21110;-53
2020/12/15 03:04:25;;;;;;;0.68;0.68;;;;;;;-0.15;100.00;101244.23;1816055;78;21170;-53
2020/12/15 03:06:53;;;;;;;0.28;0.28;;;;;;;-0.15;100.00;101257.66;1805516;78;21118;-52
2020/12/15 03:09:34;;;;;;;0.62;0.30;;;;;;;-0.13;100.00;101251.08;1846819;76;29036;-52
2020/12/15 03:12:04;;;;;;;0.08;0.08;;;;;;;-0.15;100.00;101263.03;1781595;80;21138;-52
2020/12/15 03:14:33;;;;;;;4.00;2.00;;;;;;;-0.15;100.00;101255.80;1804342;78;21146;-53
2020/12/15 03:17:01;;;;;;;3.40;1.17;;;;;;;-0.15;100.00;101246.91;1807743;78;21194;-53
2020/12/15 03:19:29;;;;;;;1.45;0.90;;;;;;;-0.17;100.00;101247.13;1792156;78;21414;-52
2020/12/15 03:21:58;;;;;;;0.72;0.50;;;;;;;-0.16;100.00;101250.13;1785854;80;21118;-52
2020/12/15 03:24:26;;;;;;;1.35;1.25;;;;;;;-0.15;100.00;101238.34;1809639;78;21118;-52
2020/12/15 03:26:54;;;;;;;1.05;1.05;;;;;;;-0.14;100.00;101244.05;1818002;78;21457;-53
2020/12/15 03:29:23;;;;;;;1.65;1.17;;;;;;;-0.15;100.00;101242.37;1804741;78;21770;-53
2020/12/15 03:31:51;;;;;;;1.20;1.20;;;;;;;-0.15;100.00;101237.00;1817455;78;21118;-52
2020/12/15 03:34:20;;;;;;;1.75;0.82;;;;;;;-0.13;100.00;101248.91;1784329;78;21473;-53
2020/12/15 03:36:49;;;;;;;13.20;1.22;;;;;;;-0.13;100.00;101253.77;1748422;81;21552;-53
2020/12/15 03:39:17;;;;;;;1.57;1.40;;;;;;;-0.14;100.00;101259.34;1754803;81;21161;-52
2020/12/15 03:41:45;;;;;;;0.25;0.20;;;;;;;-0.16;100.00;101251.47;1760498;81;21137;-53
2020/12/15 03:44:15;;;;;;;0.93;0.53;;;;;;;-0.14;100.00;101249.95;1759320;81;21170;-52
2020/12/15 03:46:54;;;;;;;0.75;0.55;;;;;;;-0.08;100.00;101250.00;1816821;76;29148;-52
2020/12/15 03:49:22;;;;;;;0.98;0.98;;;;;;;-0.12;100.00;101255.45;1754787;80;21118;-52
2020/12/15 03:51:52;;;;;;;0.30;0.30;;;;;;;-0.12;100.00;101252.77;1746832;82;21092;-53
2020/12/15 03:54:28;;;;;;;1.45;1.12;;;;;;;-0.11;100.00;101252.24;1750487;81;21143;-53
2020/12/15 03:57:14;;;;;;;0.40;0.40;;;;;;;-0.11;100.00;101253.59;1725037;83;21122;-52
2020/12/15 04:00:00;;;;;;;2.52;1.85;;;;;;;-0.06;100.00;101259.22;1863734;76;27850;-54
2020/12/15 04:02:30;;;;;;;1.70;0.57;;;;;;;-0.11;100.00;101256.27;1822854;78;21122;-52
2020/12/15 04:04:59;;;;;;;1.55;1.40;;;;;;;-0.09;100.00;101264.47;1824944;78;21102;-53
2020/12/15 04:07:26;;;;;;;0.65;0.65;;;;;;;-0.07;100.00;101266.45;1824272;78;21137;-53
2020/12/15 04:09:54;;;;;;;0.30;0.30;;;;;;;-0.07;100.00;101269.14;1822250;78;21573;-53
2020/12/15 04:12:22;;;;;;;1.27;1.17;;;;;;;-0.08;100.00;101272.84;1825082;78;21142;-54
2020/12/15 04:14:50;;;;;;;2.10;0.37;;;;;;;-0.08;100.00;101272.84;1823995;77;21132;-53
2020/12/15 04:17:17;;;;;;;2.17;0.50;;;;;;;-0.08;100.00;101275.52;1824871;78;21138;-53
2020/12/15 04:19:46;;;;;;;6.40;2.85;;;;;;;-0.08;100.00;101278.73;1807558;78;21912;-54
2020/12/15 04:22:14;;;;;;;0.40;0.40;;;;;;;-0.08;100.00;101283.58;1804567;79;21103;-54
2020/12/15 04:24:47;;;;;;;0.25;0.25;;;;;;;-0.10;100.00;101280.28;1793630;78;21880;-53
2020/12/15 04:27:15;;;;;;;1.85;0.95;;;;;;;-0.10;100.00;101285.66;1761571;80;21421;-53
2020/12/15 04:29:43;;;;;;;0.85;0.85;;;;;;;-0.09;100.00;101287.82;1791567;78;21145;-53
2020/12/15 04:32:13;;;;;;;0.45;0.45;;;;;;;-0.08;100.00;101291.64;1827610;78;21208;-53
2020/12/15 04:35:07;;;;;;;0.55;0.23;;;;;;;-0.05;100.00;101287.26;1841320;76;29158;-53
2020/12/15 04:37:35;;;;;;;1.25;0.40;;;;;;;-0.07;100.00;101290.64;1717144;83;21132;-53
2020/12/15 04:40:05;;;;;;;0.20;0.20;;;;;;;-0.07;100.00;101293.33;1717457;81;21180;-53
2020/12/15 04:42:38;;;;;;;1.47;1.37;;;;;;;-0.07;100.00;101297.36;1703362;84;21145;-53
2020/12/15 04:45:06;;;;;;;0.30;0.30;;;;;;;-0.07;100.00;101300.05;1667075;81;21539;-53
2020/12/15 04:47:42;;;;;;;0.78;0.78;;;;;;;-0.07;100.00;101301.39;1711448;83;21156;-54
2020/12/15 04:50:12;;;;;;;0.57;0.57;;;;;;;-0.06;100.00;101311.09;1724744;83;21141;-54
2020/12/15 04:53:10;;;;;;;1.12;0.40;;;;;;;-0.01;100.00;101305.98;1827450;76;29545;-54
2020/12/15 04:55:59;;;;;;;1.17;1.17;;;;;;;-0.05;100.00;101304.72;1752766;81;21209;-54
2020/12/15 04:58:29;;;;;;;2.27;1.62;;;;;;;-0.06;100.00;101312.96;1755782;81;21710;-55
2020/12/15 05:00:58;;;;;;;0.70;0.70;;;;;;;-0.08;100.00;101313.14;1657003;82;21213;-54
2020/12/15 05:03:27;;;;;;;1.12;0.62;;;;;;;-0.06;100.00;101319.67;1744228;81;21138;-54
2020/12/15 05:05:55;;;;;;;1.17;0.75;;;;;;;-0.05;100.00;101316.81;1697513;81;21086;-54
2020/12/15 05:08:24;;;;;;;2.27;1.50;;;;;;;-0.06;100.00;101315.64;1721993;82;21157;-55
2020/12/15 05:10:54;;;;;;;1.02;1.02;;;;;;;-0.05;100.00;101318.16;1732281;82;21150;-54
2020/12/15 05:13:30;;;;;;;4.45;2.20;;;;;;;-0.04;100.00;101327.05;1741855;81;21453;-55
2020/12/15 05:15:58;;;;;;;0.37;0.37;;;;;;;-0.02;100.00;101329.04;1731395;81;21105;-55
2020/12/15 05:18:50;;;;;;;3.98;3.40;;;;;;;0.01;100.00;101333.20;1847414;76;29110;-53
2020/12/15 05:21:19;;;;;;;0.37;0.37;;;;;;;-0.06;100.00;101337.97;1793229;78;21114;-53
2020/12/15 05:23:50;;;;;;;0.45;0.45;;;;;;;-0.08;100.00;101334.63;1777339;80;21117;-52
2020/12/15 05:26:25;;;;;;;0.65;0.65;;;;;;;-0.07;100.00;101339.52;1774923;80;21154;-53
2020/12/15 05:29:08;;;;;;;0.15;0.15;;;;;;;-0.06;100.00;101345.20;1783195;80;21243;-52
2020/12/15 05:31:40;;;;;;;0.90;0.90;;;;;;;-0.07;100.00;101345.72;1782688;80;21121;-53
2020/12/15 05:34:29;;;;;;;0.33;0.33;;;;;;;-0.03;100.00;101348.33;1884285;75;29443;-55
2020/12/15 05:37:15;;;;;;;1.15;0.55;;;;;;;-0.07;100.00;101353.78;1819228;78;21091;-55
2020/12/15 05:40:01;;;;;;;3.67;1.02;;;;;;;-0.05;100.00;101363.84;1754703;78;21178;-55
2020/12/15 05:42:31;;;;;;;1.37;1.32;;;;;;;-0.06;100.00;101355.44;1748890;80;21631;-55
2020/12/15 05:44:59;;;;;;;1.12;1.07;;;;;;;-0.07;100.00;101362.36;1768985;80;21120;-55
2020/12/15 05:47:27;;;;;;;0.62;0.62;;;;;;;-0.08;100.00;101372.25;1697135;81;21177;-55
2020/12/15 05:49:58;;;;;;;0.20;0.20;;;;;;;-0.07;100.00;101365.87;1766465;80;21102;-55
2020/12/15 05:52:29;;;;;;;0.75;0.45;;;;;;;-0.04;100.00;101376.23;1750142;80;21237;-55
2020/12/15 05:55:06;;;;;;;0.10;0.10;;;;;;;-0.05;100.00;101369.70;1770068;80;21423;-55
2020/12/15 05:57:34;;;;;;;0.10;0.10;;;;;;;-0.06;100.00;101371.55;1798375;78;21127;-55
2020/12/15 06:00:12;;;;;;;1.77;1.35;;;;;;;-0.05;100.00;101370.55;1786565;80;21284;-55
2020/12/15 06:02:41;;;;;;;0.82;0.50;;;;;;;-0.03;100.00;101374.38;1762868;78;21170;-55
2020/12/15 06:05:10;;;;;;;0.20;0.20;;;;;;;-0.03;100.00;101371.17;1776841;80;21113;-55
2020/12/15 06:07:38;;;;;;;0.10;0.10;;;;;;;-0.03;100.00;101381.09;1754514;79;21181;-55
2020/12/15 06:10:06;;;;;;;0.62;0.62;;;;;;;-0.04;100.00;101386.98;1755123;80;21188;-55
2020/12/15 06:12:34;;;;;;;0.10;0.10;;;;;;;-0.03;100.00;101381.92;1746596;80;21501;-55
2020/12/15 06:15:03;;;;;;;0.60;0.60;;;;;;;-0.01;100.00;101391.98;1735604;80;21245;-55
2020/12/15 06:17:30;;;;;;;0.93;0.85;;;;;;;-0.02;100.00;101394.36;1788389;79;21272;-55
2020/12/15 06:20:00;;;;;;;0.25;0.25;;;;;;;-0.03;100.00;101402.08;1791928;78;21139;-55
2020/12/15 06:22:27;;;;;;;0.00;0.00;;;;;;;-0.01;100.00;101402.73;1784590;80;21545;-55
2020/12/15 06:24:57;;;;;;;6.08;1.15;;;;;;;0.03;100.00;101407.76;1820329;78;21387;-55
2020/12/15 06:27:33;;;;;;;0.62;0.62;;;;;;;0.03;100.00;101409.10;1788288;80;21102;-55
2020/12/15 06:30:05;;;;;;;0.90;0.45;;;;;;;0.03;100.00;101409.10;1773632;78;21305;-55
2020/12/15 06:32:33;;;;;;;0.65;0.65;;;;;;;0.04;100.00;101415.61;1754662;81;21138;-55
2020/12/15 06:35:11;;;;;;;0.60;0.53;;;;;;;0.06;100.00;101418.12;1736170;81;21358;-55
2020/12/15 06:37:35;;;;;;;0.62;0.62;;;;;;;0.07;100.00;101419.78;1753851;81;21161;-55
2020/12/15 06:40:05;;;;;;;0.93;0.93;;;;;;;0.09;100.00;101420.44;1755770;80;21225;-55
2020/12/15 06:42:35;;;;;;;1.50;1.40;;;;;;;0.09;100.00;101417.74;1768382;80;21177;-55
2020/12/15 06:45:07;;;;;;;0.60;0.50;;;;;;;0.11;100.00;101427.28;1733148;80;21561;-55
2020/12/15 06:47:35;;;;;;;3.22;1.15;;;;;;;0.11;100.00;101432.66;1725375;80;21130;-55
2020/12/15 06:50:18;;;;;;;2.47;1.40;;;;;;;0.12;100.00;101429.45;1770022;80;21249;-55
2020/12/15 06:52:46;;;;;;;1.52;1.52;;;;;;;0.13;100.00;101429.80;1759471;81;21773;-55
2020/12/15 06:55:13;;;;;;;3.20;1.60;;;;;;;0.13;100.00;101431.14;1757019;81;21142;-55
2020/12/15 06:57:42;;;;;;;1.35;1.25;;;;;;;0.15;100.00;101426.42;1730383;82;21182;-55
2020/12/15 07:00:11;;;;;;;4.17;3.50;;;;;;;0.17;100.00;101431.08;1730316;82;21126;-55
2020/12/15 07:02:39;;;;;;;5.42;2.80;;;;;;;0.19;100.00;101427.70;1747260;81;21403;-55
2020/12/15 07:05:25;;;;;;;3.17;2.02;;;;;;;0.20;100.00;101433.41;1739539;81;21592;-55
2020/12/15 07:07:54;;;;;;;0.35;0.35;;;;;;;0.21;100.00;101433.20;1751158;81;21146;-55
2020/12/15 07:10:26;;;;;;;0.35;0.35;;;;;;;0.21;100.00;101424.31;1749829;81;21424;-56
2020/12/15 07:12:54;;;;;;;0.28;0.28;;;;;;;0.19;100.00;101422.32;1729506;80;21153;-55
2020/12/15 07:15:22;;;;;;;0.08;0.08;;;;;;;0.19;100.00;101433.90;1733830;82;21585;-53
2020/12/15 07:17:50;;;;;;;5.67;1.10;;;;;;;0.19;100.00;101433.90;1740923;80;21111;-52
2020/12/15 07:20:19;;;;;;;1.00;1.00;;;;;;;0.20;100.00;101438.79;1759352;80;21173;-52
2020/12/15 07:22:47;;;;;;;2.25;0.72;;;;;;;0.19;100.00;101437.93;1776367;80;21586;-52
2020/12/15 07:25:15;;;;;;;2.02;1.85;;;;;;;0.20;100.00;101439.62;1757207;80;21158;-52
2020/12/15 07:27:44;;;;;;;5.45;1.05;;;;;;;0.21;100.00;101438.58;1776301;80;21123;-53
2020/12/15 07:30:18;;;;;;;1.65;1.55;;;;;;;0.25;100.00;101447.61;1759397;80;21146;-53
2020/12/15 07:32:46;;;;;;;3.90;1.52;;;;;;;0.25;100.00;101439.06;1776861;79;21125;-53
2020/12/15 07:35:22;;;;;;;0.53;0.53;;;;;;;0.28;100.00;101449.43;1726366;80;21166;-52
2020/12/15 07:37:51;;;;;;;0.30;0.30;;;;;;;0.29;100.00;101441.68;1754279;79;21138;-52
2020/12/15 07:40:19;;;;;;;0.25;0.25;;;;;;;0.31;100.00;101445.02;1740617;81;21160;-52
2020/12/15 07:42:58;;;;;;;6.22;1.12;;;;;;;0.33;100.00;101451.56;1768357;81;21146;-52
2020/12/15 07:45:28;;;;;;;1.95;1.85;;;;;;;0.34;100.00;101455.39;1768046;81;21181;-53
2020/12/15 07:47:56;;;;;;;1.32;1.22;;;;;;;0.33;100.00;101451.05;1742519;81;21442;-53
2020/12/15 07:50:29;;;;;;;0.50;0.50;;;;;;;0.35;100.00;101449.53;1709536;82;21145;-53
2020/12/15 07:53:10;;;;;;;2.22;2.12;;;;;;;0.37;100.00;101459.08;1738299;82;21150;-53
2020/12/15 07:55:40;;;;;;;0.50;0.50;;;;;;;0.39;100.00;101467.76;1738188;82;21473;-52
2020/12/15 07:58:15;;;;;;;0.15;0.15;;;;;;;0.39;100.00;101459.69;1785225;79;21209;-52
2020/12/15 08:00:43;;;;;;;2.72;2.20;;;;;;;0.42;100.00;101461.17;1800220;79;21110;-53
2020/12/15 08:03:11;;;;;;;0.50;0.50;;;;;;;0.45;100.00;101460.82;1799957;79;21653;-52
2020/12/15 08:05:38;;;;;;;1.32;1.32;;;;;;;0.47;100.00;101465.50;1779453;80;21107;-53
2020/12/15 08:08:06;;;;;;;1.25;1.20;;;;;;;0.48;100.00;101455.58;1763376;80;21150;-52
2020/12/15 08:10:35;;;;;;;0.57;0.53;;;;;;;0.49;100.00;101457.23;1757099;80;21173;-55
2020/12/15 08:13:05;;;;;;;0.45;0.45;;;;;;;0.53;100.00;101462.56;1783217;80;21478;-55
2020/12/15 08:15:38;;;;;;;3.10;1.95;;;;;;;0.58;100.00;101457.45;1786351;80;21572;-55
2020/12/15 08:18:10;;;;;;;0.82;0.82;;;;;;;0.63;100.00;101457.72;1694625;83;21403;-55
2020/12/15 08:20:40;;;;;;;1.27;0.75;;;;;;;0.69;100.00;101460.98;1759831;80;21627;-55
2020/12/15 08:23:13;;;;;;;1.10;1.10;;;;;;;0.74;100.00;101459.93;1774973;78;21570;-55
2020/12/15 08:25:45;;;;;;;1.27;0.80;;;;;;;0.78;100.00;101461.20;1740621;80;21226;-55
2020/12/15 08:28:21;;;;;;;1.00;1.00;;;;;;;0.81;100.00;101458.12;1772209;80;21983;-55
2020/12/15 08:30:56;;;;;;;0.55;0.55;;;;;;;0.85;100.00;101462.11;1781289;80;21111;-55
2020/12/15 08:33:29;;;;;;;1.02;0.95;;;;;;;0.90;100.00;101465.58;1754022;81;21207;-54
2020/12/15 08:35:58;;;;;;;0.25;0.25;;;;;;;0.92;100.00;101462.19;1750713;81;21138;-55
2020/12/15 08:38:27;;;;;;;0.60;0.60;;;;;;;0.90;100.00;101458.02;1754296;80;21131;-55
2020/12/15 08:41:00;;;;;;;2.15;1.22;;;;;;;0.92;100.00;101467.57;1755642;81;21138;-54
2020/12/15 08:43:27;;;;;;;2.47;1.77;;;;;;;0.94;100.00;101464.19;1762785;80;21185;-55
2020/12/15 08:45:56;;;;;;;2.27;1.05;;;;;;;1.00;100.00;101463.92;1749795;81;21121;-55
2020/12/15 08:48:25;;;;;;;0.10;0.10;;;;;;;1.05;100.00;101466.87;1750180;81;21251;-55
2020/12/15 08:50:52;;;;;;;1.10;0.62;;;;;;;1.08;100.00;101465.13;1751061;80;21169;-55
2020/12/15 08:53:20;;;;;;;0.50;0.50;;;;;;;1.14;100.00;101467.56;1768009;80;21628;-55
2020/12/15 08:55:48;;;;;;;0.10;0.10;;;;;;;1.20;100.00;101470.84;1765831;80;21116;-54
2020/12/15 08:58:17;;;;;;;0.50;0.50;;;;;;;1.22;100.00;101465.59;1759392;81;21124;-55
2020/12/15 09:00:47;;;;;;;0.55;0.55;;;;;;;1.25;100.00;101467.06;1726221;82;21142;-54
2020/12/15 09:03:18;;;;;;;0.88;0.37;;;;;;;1.27;100.00;101463.67;1726233;83;21004;-54
2020/12/15 09:05:55;;;;;;;0.73;0.43;;;;;;;1.34;100.00;101467.78;1771130;80;21126;-54
2020/12/15 09:08:26;;;;;;;0.55;0.53;;;;;;;1.39;100.00;101466.68;1782662;80;21149;-55
2020/12/15 09:10:57;;;;;;;0.98;0.98;;;;;;;1.44;100.00;101464.23;1752866;81;21159;-54
2020/12/15 09:13:27;;;;;;;4.78;1.00;;;;;;;1.48;100.00;101472.23;1787574;80;21141;-54
2020/12/15 09:15:56;;;;;;;0.00;0.00;;;;;;;1.50;100.00;101466.97;1787424;80;21530;-54
2020/12/15 09:18:33;;;;;;;0.65;0.65;;;;;;;1.52;100.00;101463.26;1787571;80;21173;-54
2020/12/15 09:21:12;;;;;;;4.75;0.80;;;;;;;1.54;100.00;101465.25;1787661;80;21130;-55
2020/12/15 09:23:52;;;;;;;0.37;0.37;;;;;;;1.60;100.00;101458.55;1860186;76;29117;-54
2020/12/15 09:26:21;;;;;;;1.15;1.15;;;;;;;1.58;100.00;101462.47;1817993;77;21518;-55
2020/12/15 09:28:49;;;;;;;1.02;1.02;;;;;;;1.57;100.00;101457.59;1832754;75;21561;-53
2020/12/15 09:31:18;;;;;;;0.88;0.80;;;;;;;1.58;100.00;101456.56;1843676;77;21090;-52
2020/12/15 09:33:46;;;;;;;0.20;0.20;;;;;;;1.58;100.00;101443.09;1824868;77;21131;-52
2020/12/15 09:36:14;;;;;;;1.30;1.20;;;;;;;1.61;100.00;101450.80;1840080;77;21130;-51
2020/12/15 09:38:42;;;;;;;1.10;1.10;;;;;;;1.62;100.00;101447.06;1849475;77;21171;-54
2020/12/15 09:41:10;;;;;;;1.62;0.47;;;;;;;1.61;100.00;101437.33;1831284;77;21102;-54
2020/12/15 09:43:37;;;;;;;1.32;0.82;;;;;;;1.62;100.00;101440.85;1832540;77;21177;-54
2020/12/15 09:46:05;;;;;;;2.58;1.07;;;;;;;1.62;100.00;101440.85;1843857;77;21146;-54
2020/12/15 09:48:33;;;;;;;0.10;0.10;;;;;;;1.61;100.00;101440.02;1829753;77;21103;-53
2020/12/15 09:51:01;;;;;;;1.25;1.15;;;;;;;1.61;100.00;101438.68;1842212;77;21158;-53
2020/12/15 09:53:29;;;;;;;1.27;1.07;;;;;;;1.65;100.00;101437.75;1842203;77;21615;-53
2020/12/15 09:55:57;;;;;;;3.08;1.70;;;;;;;1.67;100.00;101441.09;1853047;77;21541;-54
2020/12/15 09:58:28;;;;;;;0.47;0.47;;;;;;;1.68;100.00;101436.02;1841240;77;21100;-52
2020/12/15 10:00:57;;;;;;;1.40;1.32;;;;;;;1.69;100.00;101431.78;1849145;77;21142;-52
2020/12/15 10:03:24;;;;;;;1.52;0.62;;;;;;;1.71;100.00;101433.77;1836017;76;21707;-53
2020/12/15 10:05:52;;;;;;;1.42;1.27;;;;;;;1.74;100.00;101433.06;1837793;77;21129;-52
2020/12/15 10:08:23;;;;;;;0.37;0.37;;;;;;;1.75;100.00;101436.06;1828875;77;21170;-50
2020/12/15 10:10:51;;;;;;;0.80;0.78;;;;;;;1.76;100.00;101429.66;1833380;77;21138;-51
2020/12/15 10:13:19;;;;;;;0.25;0.25;;;;;;;1.78;100.00;101435.17;1847963;77;21079;-50
2020/12/15 10:15:46;;;;;;;0.85;0.82;;;;;;;1.79;100.00;101442.22;1836481;77;21809;-50
2020/12/15 10:18:14;;;;;;;3.52;1.60;;;;;;;1.82;100.00;101443.69;1846444;75;21095;-55
2020/12/15 10:20:42;;;;;;;5.78;1.52;;;;;;;1.83;100.00;101446.68;1828353;77;21086;-54
2020/12/15 10:23:12;;;;;;;0.95;0.95;;;;;;;1.84;100.00;101436.23;1822122;77;21137;-55
2020/12/15 10:25:41;;;;;;;0.62;0.62;;;;;;;1.85;100.00;101435.20;1804143;78;21153;-55
2020/12/15 10:28:10;;;;;;;1.57;1.50;;;;;;;1.84;100.00;101437.59;1824513;78;21500;-55
2020/12/15 10:30:38;;;;;;;1.07;1.07;;;;;;;1.81;100.00;101433.42;1823075;78;21410;-55
2020/12/15 10:33:07;;;;;;;0.65;0.65;;;;;;;1.80;100.00;101430.91;1822732;78;21102;-55
2020/12/15 10:35:34;;;;;;;1.20;1.10;;;;;;;1.81;100.00;101439.34;1811628;78;21141;-54
2020/12/15 10:38:02;;;;;;;0.40;0.40;;;;;;;1.80;100.00;101439.00;1819774;78;21787;-54
2020/12/15 10:40:30;;;;;;;0.13;0.13;;;;;;;1.78;100.00;101441.91;1797555;78;21119;-54
2020/12/15 10:42:58;;;;;;;0.30;0.30;;;;;;;1.78;100.00;101451.34;1804684;78;21566;-54
2020/12/15 10:45:28;;;;;;;0.88;0.88;;;;;;;1.79;100.00;101449.48;1819348;78;21105;-54
2020/12/15 10:47:55;;;;;;;1.17;0.62;;;;;;;1.77;100.00;101447.48;1812359;78;21090;-54
2020/12/15 10:50:23;;;;;;;1.00;0.80;;;;;;;1.77;100.00;101446.97;1812357;78;21658;-54
2020/12/15 10:52:51;;;;;;;0.37;0.37;;;;;;;1.77;100.00;101440.75;1797851;77;21118;-54
2020/12/15 10:55:18;;;;;;;0.78;0.62;;;;;;;1.75;100.00;101447.67;1846352;77;21150;-54
2020/12/15 10:57:46;;;;;;;0.47;0.47;;;;;;;1.71;100.00;101451.28;1824207;77;21148;-54
2020/12/15 11:00:14;;;;;;;0.40;0.40;;;;;;;1.68;100.00;101447.64;1817643;77;21149;-54
2020/12/15 11:02:41;;;;;;;1.32;0.95;;;;;;;1.68;100.00;101446.30;1816785;78;21129;-54
2020/12/15 11:05:09;;;;;;;1.45;0.50;;;;;;;1.66;100.00;101448.88;1819004;78;21540;-54
2020/12/15 11:07:36;;;;;;;1.70;1.60;;;;;;;1.64;100.00;101438.80;1824365;78;21243;-54
2020/12/15 11:10:04;;;;;;;1.07;1.05;;;;;;;1.62;100.00;101444.89;1803415;78;21177;-54
2020/12/15 11:12:32;;;;;;;0.90;0.90;;;;;;;1.60;100.00;101434.82;1815319;77;21706;-54
2020/12/15 11:14:59;;;;;;;0.40;0.40;;;;;;;1.62;100.00;101443.55;1795815;78;21421;-54
2020/12/15 11:17:27;;;;;;;0.75;0.30;;;;;;;1.63;100.00;101440.67;1800653;77;21513;-54
2020/12/15 11:19:55;;;;;;;0.72;0.72;;;;;;;1.65;100.00;101434.55;1792503;78;21133;-54
2020/12/15 11:22:23;;;;;;;1.10;0.85;;;;;;;1.67;100.00;101439.75;1820332;77;21046;-54
2020/12/15 11:24:50;;;;;;;0.10;0.10;;;;;;;1.70;100.00;101452.30;1779251;78;21731;-54
2020/12/15 11:27:19;;;;;;;2.08;1.98;;;;;;;1.69;100.00;101441.22;1777345;80;21260;-54
2020/12/15 11:29:46;;;;;;;2.08;1.47;;;;;;;1.70;100.00;101447.43;1784886;80;21126;-54
2020/12/15 11:32:15;;;;;;;2.22;1.15;;;;;;;1.70;100.00;101445.56;1743812;81;21186;-54
2020/12/15 11:34:44;;;;;;;12.50;0.68;;;;;;;1.72;99.91;101444.03;1736238;81;21522;-54